createdAt,value
2018-07-14T00:00:19.934Z,59.18
2018-07-14T00:02:50.510Z,59.39
2018-07-14T00:05:21.422Z,59.73
2018-07-14T00:07:52.113Z,60.63
2018-07-14T00:10:22.705Z,61.31
2018-07-14T00:12:53.638Z,61.45
2018-07-14T00:15:27.831Z,61.12
2018-07-14T00:17:58.665Z,61.48
2018-07-14T00:20:29.374Z,60.95
2018-07-14T00:23:00.228Z,60.92
2018-07-14T00:25:35.912Z,60.79
2018-07-14T00:28:06.685Z,60.74
2018-07-14T00:30:37.434Z,60.41
2018-07-14T00:33:08.110Z,59.76
2018-07-14T00:35:38.749Z,59.57
2018-07-14T00:38:09.431Z,59.58
2018-07-14T00:40:40.130Z,59.46
2018-07-14T00:43:10.820Z,60.28
2018-07-14T00:45:41.316Z,60.08
2018-07-14T00:48:11.949Z,59.73
2018-07-14T00:50:42.677Z,60.13
2018-07-14T00:53:13.425Z,60.86
2018-07-14T00:55:44.025Z,60.39
2018-07-14T00:58:14.712Z,59.42
2018-07-14T01:00:45.307Z,59.75
2018-07-14T01:03:16.133Z,60.33
2018-07-14T01:05:46.641Z,59.90
2018-07-14T01:08:17.350Z,59.91
2018-07-14T01:10:47.889Z,60.09
2018-07-14T01:13:18.581Z,59.60
2018-07-14T01:15:49.417Z,59.47
2018-07-14T01:18:20.512Z,59.43
2018-07-14T01:20:51.208Z,59.39
2018-07-14T01:23:21.997Z,59.09
2018-07-14T01:25:52.693Z,59.82
2018-07-14T01:28:23.499Z,59.67
2018-07-14T01:30:54.197Z,60.01
2018-07-14T01:33:24.893Z,60.16
2018-07-14T01:35:55.549Z,61.44
2018-07-14T01:38:25.874Z,61.77
2018-07-14T01:40:56.565Z,60.93
2018-07-14T01:43:27.336Z,61.65
2018-07-14T01:45:58.010Z,61.45
2018-07-14T01:48:28.722Z,61.30
2018-07-14T01:50:59.225Z,60.56
2018-07-14T01:53:29.854Z,62.23
2018-07-14T01:56:00.493Z,60.85
2018-07-14T01:58:31.079Z,61.39
2018-07-14T02:01:01.683Z,61.80
2018-07-14T02:03:32.641Z,61.87
2018-07-14T02:06:03.105Z,61.72
2018-07-14T02:08:33.873Z,62.62
2018-07-14T02:11:06.533Z,62.19
2018-07-14T02:13:37.281Z,62.19
2018-07-14T02:16:08.110Z,61.92
2018-07-14T02:18:38.428Z,62.04
2018-07-14T02:21:09.264Z,62.45
2018-07-14T02:23:40.045Z,62.33
2018-07-14T02:26:10.633Z,62.90
2018-07-14T02:28:42.865Z,61.92
2018-07-14T02:31:13.548Z,62.09
2018-07-14T02:33:44.061Z,61.97
2018-07-14T02:36:15.217Z,61.84
2018-07-14T02:38:46.050Z,61.83
2018-07-14T02:41:16.729Z,61.57
2018-07-14T02:43:47.439Z,61.31
2018-07-14T02:46:17.999Z,61.79
2018-07-14T02:48:48.833Z,60.83
2018-07-14T02:51:19.450Z,61.17
2018-07-14T02:53:50.138Z,61.66
2018-07-14T02:56:20.753Z,61.22
2018-07-14T02:58:51.689Z,60.83
2018-07-14T03:01:22.318Z,61.49
2018-07-14T03:03:53.058Z,61.31
2018-07-14T03:06:23.723Z,61.12
2018-07-14T03:08:54.297Z,60.93
2018-07-14T03:11:24.769Z,61.34
2018-07-14T03:13:55.653Z,61.36
2018-07-14T03:16:26.279Z,61.93
2018-07-14T03:18:56.758Z,62.16
2018-07-14T03:21:26.698Z,61.44
2018-07-14T03:23:57.110Z,61.09
2018-07-14T03:26:27.673Z,61.02
2018-07-14T03:28:58.062Z,61.23
2018-07-14T03:31:28.457Z,61.13
2018-07-14T03:33:58.856Z,61.01
2018-07-14T03:36:29.282Z,60.61
2018-07-14T03:38:59.638Z,59.88
2018-07-14T03:41:29.995Z,60.02
2018-07-14T03:44:00.512Z,60.17
2018-07-14T03:46:31.946Z,59.81
2018-07-14T03:49:02.144Z,59.79
2018-07-14T03:51:40.265Z,58.64
2018-07-14T03:54:10.960Z,59.38
2018-07-14T03:56:42.073Z,59.80
2018-07-14T03:59:12.741Z,59.82
2018-07-14T04:01:43.466Z,59.06
2018-07-14T04:04:14.311Z,58.33
2018-07-14T04:06:44.930Z,59.13
2018-07-14T04:09:15.450Z,58.76
2018-07-14T04:11:46.047Z,58.62
2018-07-14T04:14:16.349Z,57.57
2018-07-14T04:16:46.825Z,57.21
2018-07-14T04:19:17.136Z,56.94
2018-07-14T04:21:47.459Z,56.89
2018-07-14T04:24:18.069Z,56.50
2018-07-14T04:26:48.417Z,57.17
2018-07-14T04:29:18.834Z,55.74
2018-07-14T04:31:49.218Z,55.94
2018-07-14T04:34:19.765Z,55.01
2018-07-14T04:36:50.130Z,54.81
2018-07-14T04:39:21.033Z,55.66
2018-07-14T04:41:51.393Z,55.43
2018-07-14T04:44:21.996Z,55.51
2018-07-14T04:46:52.425Z,55.50
2018-07-14T04:49:23.282Z,54.23
2018-07-14T04:51:53.663Z,54.55
2018-07-14T04:54:24.210Z,53.22
2018-07-14T04:56:54.094Z,51.35
2018-07-14T04:59:25.009Z,50.50
2018-07-14T05:01:55.714Z,50.10
2018-07-14T05:04:26.439Z,48.43
2018-07-14T05:06:57.278Z,47.48
2018-07-14T05:09:28.046Z,48.04
2018-07-14T05:11:58.746Z,47.50
2018-07-14T05:14:29.478Z,46.69
2018-07-14T05:17:00.157Z,46.41
2018-07-14T05:19:30.842Z,46.25
2018-07-14T05:22:01.533Z,45.50
2018-07-14T05:24:33.380Z,45.82
2018-07-14T05:27:04.171Z,44.15
2018-07-14T05:29:35.014Z,44.42
2018-07-14T05:32:05.681Z,44.05
2018-07-14T05:34:36.781Z,44.92
2018-07-14T05:37:07.590Z,44.29
2018-07-14T05:39:39.988Z,43.43
2018-07-14T05:42:10.677Z,42.94
2018-07-14T05:44:41.516Z,43.67
2018-07-14T05:47:12.231Z,42.13
2018-07-14T05:49:42.762Z,42.73
2018-07-14T05:52:13.500Z,42.58
2018-07-14T05:54:44.345Z,41.92
2018-07-14T05:57:15.069Z,42.13
2018-07-14T05:59:45.854Z,41.87
2018-07-14T06:02:16.566Z,41.82
2018-07-14T06:04:46.833Z,40.86
2018-07-14T06:07:17.445Z,41.23
2018-07-14T06:09:48.272Z,41.30
2018-07-14T06:12:18.948Z,40.87
2018-07-14T06:14:49.670Z,40.60
2018-07-14T06:17:20.364Z,39.98
2018-07-14T06:19:51.269Z,39.12
2018-07-14T06:22:21.997Z,39.41
2018-07-14T06:24:52.987Z,38.71
2018-07-14T06:27:23.629Z,36.55
2018-07-14T06:29:54.601Z,37.69
2018-07-14T06:32:25.269Z,36.98
2018-07-14T06:34:55.757Z,38.26
2018-07-14T06:37:26.109Z,37.38
2018-07-14T06:39:56.582Z,37.71
2018-07-14T06:42:26.964Z,36.45
2018-07-14T06:44:57.434Z,36.63
2018-07-14T06:47:27.876Z,37.03
2018-07-14T06:49:59.428Z,36.24
2018-07-14T06:52:29.970Z,35.65
2018-07-14T06:55:00.446Z,35.50
2018-07-14T06:57:30.782Z,38.01
2018-07-14T07:00:01.586Z,35.44
2018-07-14T07:02:31.906Z,35.22
2018-07-14T07:05:02.850Z,34.17
2018-07-14T07:07:38.186Z,33.62
2018-07-14T07:10:09.026Z,33.55
2018-07-14T07:12:39.681Z,33.15
2018-07-14T07:15:10.516Z,33.79
2018-07-14T07:17:40.945Z,32.43
2018-07-14T07:20:11.692Z,32.18
2018-07-14T07:22:42.081Z,32.20
2018-07-14T07:25:13.014Z,32.18
2018-07-14T07:27:43.215Z,32.48
2018-07-14T07:30:14.142Z,32.08
2018-07-14T07:32:44.801Z,30.86
2018-07-14T07:35:15.679Z,30.98
2018-07-14T07:37:46.371Z,30.37
2018-07-14T07:40:17.042Z,29.09
2018-07-14T07:42:47.357Z,30.56
2018-07-14T07:45:17.974Z,30.09
2018-07-14T07:47:48.809Z,29.67
2018-07-14T07:50:20.562Z,29.05
2018-07-14T07:52:50.861Z,29.82
2018-07-14T07:55:21.445Z,28.90
2018-07-14T07:57:52.053Z,28.03
2018-07-14T08:00:22.389Z,28.71
2018-07-14T08:02:53.123Z,30.33
2018-07-14T08:05:24.337Z,28.59
2018-07-14T08:07:55.106Z,27.27
2018-07-14T08:10:26.009Z,26.45
2018-07-14T08:12:56.619Z,26.80
2018-07-14T08:15:27.425Z,27.33
2018-07-14T08:17:58.549Z,27.10
2018-07-14T08:20:29.364Z,26.98
2018-07-14T08:22:59.925Z,26.78
2018-07-14T08:25:30.629Z,27.21
2018-07-14T08:28:01.322Z,26.24
2018-07-14T08:30:32.321Z,26.81
2018-07-14T08:33:03.030Z,26.66
2018-07-14T08:35:34.139Z,25.30
2018-07-14T08:38:04.812Z,26.17
2018-07-14T08:40:35.553Z,26.12
2018-07-14T08:43:06.350Z,25.87
2018-07-14T08:45:37.474Z,24.97
2018-07-14T08:48:07.821Z,24.67
2018-07-14T08:50:38.550Z,25.95
2018-07-14T08:53:09.434Z,26.46
2018-07-14T08:55:40.650Z,25.12
2018-07-14T08:58:11.229Z,25.11
2018-07-14T09:00:42.093Z,26.49
2018-07-14T09:03:12.421Z,25.24
2018-07-14T09:05:43.182Z,25.80
2018-07-14T09:08:13.978Z,26.45
2018-07-14T09:10:44.978Z,23.88
2018-07-14T09:13:15.649Z,25.08
2018-07-14T09:15:46.559Z,23.66
2018-07-14T09:18:17.058Z,27.12
2018-07-14T09:20:47.525Z,24.29
2018-07-14T09:23:18.281Z,21.52
2018-07-14T09:25:49.057Z,23.29
2018-07-14T09:28:19.747Z,23.66
2018-07-14T09:30:50.449Z,22.88
2018-07-14T09:33:20.983Z,23.79
2018-07-14T09:35:51.881Z,22.43
2018-07-14T09:38:22.581Z,23.06
2018-07-14T09:40:53.521Z,24.54
2018-07-14T09:43:24.286Z,22.89
2018-07-14T09:45:54.949Z,22.92
2018-07-14T09:48:25.642Z,22.39
2018-07-14T09:50:56.552Z,22.48
2018-07-14T09:53:27.293Z,23.52
2018-07-14T09:55:58.282Z,24.71
2018-07-14T09:58:28.933Z,22.34
2018-07-14T10:01:04.387Z,21.00
2018-07-14T10:03:35.042Z,23.04
2018-07-14T10:06:05.938Z,22.36
2018-07-14T10:08:36.646Z,24.24
2018-07-14T10:11:07.313Z,21.31
2018-07-14T10:13:37.865Z,20.97
2018-07-14T10:16:08.557Z,21.37
2018-07-14T10:18:39.223Z,20.26
2018-07-14T10:21:10.102Z,23.20
2018-07-14T10:23:40.625Z,22.08
2018-07-14T10:26:11.455Z,21.48
2018-07-14T10:28:42.083Z,22.20
2018-07-14T10:31:12.902Z,21.56
2018-07-14T10:33:43.824Z,19.62
2018-07-14T10:36:14.571Z,21.22
2018-07-14T10:38:45.377Z,22.39
2018-07-14T10:41:16.063Z,22.19
2018-07-14T10:43:46.773Z,23.87
2018-07-14T10:46:17.699Z,20.61
2018-07-14T10:48:48.442Z,19.22
2018-07-14T10:51:19.246Z,21.06
2018-07-14T10:53:49.829Z,21.22
2018-07-14T10:56:20.604Z,18.47
2018-07-14T10:58:51.270Z,21.20
2018-07-14T11:01:22.213Z,20.94
2018-07-14T11:03:52.953Z,20.82
2018-07-14T11:06:23.925Z,20.93
2018-07-14T11:08:54.510Z,20.15
2018-07-14T11:11:25.530Z,19.39
2018-07-14T11:13:56.090Z,19.42
2018-07-14T11:16:26.774Z,19.58
2018-07-14T11:18:57.530Z,18.76
2018-07-14T11:21:28.233Z,18.47
2018-07-14T11:23:58.962Z,18.43
2018-07-14T11:26:30.172Z,18.41
2018-07-14T11:29:00.341Z,18.41
2018-07-14T11:31:31.170Z,20.68
2018-07-14T11:34:01.957Z,20.22
2018-07-14T11:36:32.886Z,19.46
2018-07-14T11:39:03.878Z,19.13
2018-07-14T11:41:34.703Z,19.58
2018-07-14T11:44:05.663Z,19.71
2018-07-14T11:46:36.766Z,19.81
2018-07-14T11:49:07.486Z,18.36
2018-07-14T11:51:38.261Z,18.98
2018-07-14T11:54:08.880Z,19.41
2018-07-14T11:56:39.645Z,20.81
2018-07-14T11:59:10.319Z,20.09
2018-07-14T12:01:41.159Z,20.36
2018-07-14T12:04:11.745Z,18.51
2018-07-14T12:06:42.472Z,18.06
2018-07-14T12:09:13.240Z,20.80
2018-07-14T12:11:44.118Z,18.08
2018-07-14T12:14:14.822Z,19.67
2018-07-14T12:16:45.823Z,20.23
2018-07-14T12:19:16.486Z,20.38
2018-07-14T12:21:47.365Z,19.60
2018-07-14T12:24:18.037Z,18.78
2018-07-14T12:26:48.927Z,20.80
2018-07-14T12:29:19.438Z,19.37
2018-07-14T12:31:50.218Z,18.88
2018-07-14T12:34:20.889Z,18.44
2018-07-14T12:36:52.746Z,19.61
2018-07-14T12:39:23.626Z,20.49
2018-07-14T12:41:54.558Z,19.79
2018-07-14T12:44:25.314Z,18.96
2018-07-14T12:46:56.278Z,20.80
2018-07-14T12:49:26.975Z,20.93
2018-07-14T12:51:57.895Z,20.07
2018-07-14T12:54:28.770Z,19.20
2018-07-14T12:56:59.805Z,19.52
2018-07-14T12:59:30.523Z,21.35
2018-07-14T13:02:01.406Z,23.68
2018-07-14T13:04:32.037Z,21.73
2018-07-14T13:07:03.079Z,20.69
2018-07-14T13:09:33.867Z,20.71
2018-07-14T13:12:04.748Z,19.86
2018-07-14T13:14:35.441Z,20.80
2018-07-14T13:17:06.508Z,19.63
2018-07-14T13:19:37.246Z,19.58
2018-07-14T13:22:08.350Z,20.85
2018-07-14T13:24:39.031Z,20.04
2018-07-14T13:27:10.137Z,19.83
2018-07-14T13:29:40.974Z,20.00
2018-07-14T13:32:11.882Z,20.61
2018-07-14T13:34:42.409Z,21.89
2018-07-14T13:37:13.238Z,21.25
2018-07-14T13:39:43.960Z,22.82
2018-07-14T13:42:14.758Z,21.25
2018-07-14T13:44:45.515Z,21.37
2018-07-14T13:47:16.438Z,21.11
2018-07-14T13:49:47.152Z,19.51
2018-07-14T13:52:18.023Z,20.47
2018-07-14T13:54:48.750Z,20.09
2018-07-14T13:57:19.554Z,19.30
2018-07-14T13:59:50.223Z,20.10
2018-07-14T14:02:21.137Z,23.24
2018-07-14T14:04:51.726Z,20.99
2018-07-14T14:07:22.623Z,20.15
2018-07-14T14:09:53.301Z,22.07
2018-07-14T14:12:24.386Z,21.40
2018-07-14T14:14:55.273Z,22.52
2018-07-14T14:17:26.226Z,22.30
2018-07-14T14:19:57.127Z,21.90
2018-07-14T14:22:27.853Z,22.55
2018-07-14T14:24:58.678Z,20.95
2018-07-14T14:27:29.669Z,21.16
2018-07-14T14:30:00.282Z,21.46
2018-07-14T14:32:31.129Z,21.51
2018-07-14T14:35:01.827Z,20.83
2018-07-14T14:37:32.013Z,22.08
2018-07-14T14:40:02.370Z,23.83
2018-07-14T14:42:32.733Z,21.77
2018-07-14T14:45:03.139Z,21.85
2018-07-14T14:47:34.006Z,22.42
2018-07-14T14:50:04.761Z,21.34
2018-07-14T14:52:35.673Z,22.16
2018-07-14T14:55:06.602Z,21.02
2018-07-14T14:57:37.306Z,20.39
2018-07-14T15:00:08.032Z,21.15
2018-07-14T15:02:38.817Z,22.29
2018-07-14T15:05:09.306Z,21.23
2018-07-14T15:07:39.985Z,22.16
2018-07-14T15:10:10.762Z,21.38
2018-07-14T15:12:41.677Z,22.67
2018-07-14T15:15:12.331Z,21.75
2018-07-14T15:17:43.222Z,21.79
2018-07-14T15:20:13.594Z,22.18
2018-07-14T15:22:44.634Z,21.82
2018-07-14T15:25:15.406Z,21.43
2018-07-14T15:27:45.991Z,22.21
2018-07-14T15:30:16.709Z,22.57
2018-07-14T15:32:47.453Z,21.82
2018-07-14T15:35:18.058Z,21.80
2018-07-14T15:37:48.778Z,21.78
2018-07-14T15:40:19.606Z,21.76
2018-07-14T15:42:50.211Z,23.92
2018-07-14T15:45:21.025Z,23.21
2018-07-14T15:47:51.934Z,23.51
2018-07-14T15:50:22.726Z,21.49
2018-07-14T15:52:53.939Z,21.42
2018-07-14T15:55:25.222Z,21.28
2018-07-14T15:57:56.133Z,22.97
2018-07-14T16:00:26.702Z,22.85
2018-07-14T16:02:57.602Z,22.92
2018-07-14T16:05:28.354Z,23.28
2018-07-14T16:07:59.251Z,23.42
2018-07-14T16:10:29.870Z,23.90
2018-07-14T16:13:00.480Z,24.00
2018-07-14T16:15:31.244Z,24.75
2018-07-14T16:18:01.931Z,23.36
2018-07-14T16:20:32.617Z,24.98
2018-07-14T16:23:03.594Z,23.72
2018-07-14T16:25:34.187Z,23.78
2018-07-14T16:28:05.039Z,24.41
2018-07-14T16:30:35.113Z,25.21
2018-07-14T16:33:05.982Z,25.14
2018-07-14T16:35:36.899Z,27.03
2018-07-14T16:38:07.642Z,26.52
2018-07-14T16:40:38.445Z,25.76
2018-07-14T16:43:09.187Z,25.84
2018-07-14T16:45:39.951Z,26.37
2018-07-14T16:48:11.066Z,26.56
2018-07-14T16:50:41.721Z,27.05
2018-07-14T16:53:12.497Z,27.54
2018-07-14T16:55:43.247Z,28.31
2018-07-14T16:58:14.329Z,27.77
2018-07-14T17:00:45.214Z,28.05
2018-07-14T17:03:16.008Z,28.86
2018-07-14T17:05:46.572Z,28.18
2018-07-14T17:08:17.319Z,28.76
2018-07-14T17:10:48.007Z,29.31
2018-07-14T17:13:18.710Z,29.08
2018-07-14T17:15:49.414Z,28.74
2018-07-14T17:18:20.130Z,28.27
2018-07-14T17:20:50.523Z,28.35
2018-07-14T17:23:20.830Z,28.47
2018-07-14T17:25:51.173Z,29.44
2018-07-14T17:28:21.509Z,30.06
2018-07-14T17:30:51.793Z,30.07
2018-07-14T17:33:22.597Z,30.37
2018-07-14T17:35:53.297Z,30.44
2018-07-14T17:38:24.422Z,29.82
2018-07-14T17:40:55.060Z,30.89
2018-07-14T17:43:25.966Z,30.86
2018-07-14T17:45:56.674Z,31.13
2018-07-14T17:48:27.547Z,31.47
2018-07-14T17:50:58.252Z,31.25
2018-07-14T17:53:28.914Z,31.95
2018-07-14T17:55:59.566Z,31.92
2018-07-14T17:58:30.441Z,32.14
2018-07-14T18:01:01.151Z,32.18
2018-07-14T18:03:32.103Z,33.75
2018-07-14T18:06:02.815Z,33.83
2018-07-14T18:08:33.686Z,33.50
2018-07-14T18:11:04.406Z,33.09
2018-07-14T18:13:35.171Z,33.57
2018-07-14T18:16:05.938Z,33.61
2018-07-14T18:18:36.682Z,34.71
2018-07-14T18:21:07.586Z,34.14
2018-07-14T18:23:37.938Z,34.46
2018-07-14T18:26:08.260Z,34.74
2018-07-14T18:28:38.864Z,34.70
2018-07-14T18:31:09.167Z,35.26
2018-07-14T18:33:39.547Z,35.24
2018-07-14T18:36:09.946Z,35.80
2018-07-14T18:38:40.293Z,35.83
2018-07-14T18:41:10.981Z,36.67
2018-07-14T18:43:41.749Z,36.79
2018-07-14T18:46:12.468Z,36.35
2018-07-14T18:48:43.723Z,37.24
2018-07-14T18:51:14.414Z,37.11
2018-07-14T18:53:44.930Z,37.56
2018-07-14T18:56:15.537Z,37.31
2018-07-14T18:58:46.223Z,36.61
2018-07-14T19:01:16.918Z,36.49
2018-07-14T19:03:47.658Z,36.47
2018-07-14T19:06:18.154Z,36.43
2018-07-14T19:08:48.848Z,36.26
2018-07-14T19:11:19.461Z,36.98
2018-07-14T19:13:49.930Z,36.71
2018-07-14T19:16:20.230Z,37.09
2018-07-14T19:18:50.981Z,36.32
2018-07-14T19:21:21.642Z,36.88
2018-07-14T19:23:52.454Z,36.95
2018-07-14T19:26:23.272Z,36.69
2018-07-14T19:28:54.546Z,37.05
2018-07-14T19:31:25.786Z,37.18
2018-07-14T19:33:56.358Z,36.89
2018-07-14T19:36:27.111Z,37.45
2018-07-14T19:38:57.951Z,37.89
2018-07-14T19:41:28.737Z,38.37
2018-07-14T19:43:59.638Z,38.09
2018-07-14T19:46:30.218Z,38.66
2018-07-14T19:49:01.118Z,38.29
2018-07-14T19:51:31.682Z,38.36
2018-07-14T19:54:02.041Z,38.17
2018-07-14T19:56:33.119Z,38.71
2018-07-14T19:59:03.874Z,38.93
2018-07-14T20:01:34.521Z,39.06
2018-07-14T20:04:05.361Z,38.89
2018-07-14T20:06:36.137Z,39.04
2018-07-14T20:09:08.113Z,39.56
2018-07-14T20:11:38.873Z,39.49
2018-07-14T20:14:09.633Z,39.62
2018-07-14T20:16:40.286Z,40.12
2018-07-14T20:19:11.153Z,39.92
2018-07-14T20:21:41.797Z,39.61
2018-07-14T20:24:12.490Z,40.11
2018-07-14T20:26:43.206Z,40.00
2018-07-14T20:29:14.153Z,40.53
2018-07-14T20:31:44.390Z,41.05
2018-07-14T20:34:16.554Z,41.23
2018-07-14T20:36:47.052Z,41.64
2018-07-14T20:39:17.738Z,41.85
2018-07-14T20:41:48.451Z,42.12
2018-07-14T20:44:19.255Z,42.69
2018-07-14T20:46:50.003Z,43.15
2018-07-14T20:49:20.795Z,43.42
2018-07-14T20:51:51.435Z,43.36
2018-07-14T20:54:22.251Z,44.30
2018-07-14T20:56:52.976Z,43.62
2018-07-14T20:59:23.897Z,43.77
2018-07-14T21:01:54.594Z,44.91
2018-07-14T21:04:25.791Z,44.88
2018-07-14T21:06:56.483Z,45.00
2018-07-14T21:09:27.588Z,44.96
2018-07-14T21:11:58.250Z,44.81
2018-07-14T21:14:28.989Z,44.46
2018-07-14T21:16:59.690Z,43.78
2018-07-14T21:19:30.857Z,50.43
2018-07-14T21:22:01.465Z,51.30
2018-07-14T21:24:32.247Z,52.77
2018-07-14T21:27:02.969Z,51.49
2018-07-14T21:29:33.770Z,51.67
2018-07-14T21:32:04.374Z,49.31
2018-07-14T21:34:35.150Z,49.40
2018-07-14T21:37:05.836Z,48.21
2018-07-14T21:39:38.341Z,48.61
2018-07-14T21:42:09.030Z,50.40
2018-07-14T21:44:39.733Z,49.41
2018-07-14T21:47:10.411Z,49.70
2018-07-14T21:49:41.877Z,50.32
2018-07-14T21:52:12.429Z,51.29
2018-07-14T21:54:43.489Z,51.40
2018-07-14T21:57:14.169Z,51.26
2018-07-14T21:59:44.781Z,50.95
2018-07-14T22:02:15.449Z,51.56
2018-07-14T22:04:46.137Z,53.03
2018-07-14T22:07:16.912Z,53.12
2018-07-14T22:09:47.638Z,53.99
2018-07-14T22:12:18.318Z,53.91
2018-07-14T22:14:49.035Z,53.82
2018-07-14T22:17:19.794Z,56.34
2018-07-14T22:19:50.401Z,55.10
2018-07-14T22:22:21.357Z,54.20
2018-07-14T22:24:52.082Z,54.48
2018-07-14T22:27:22.813Z,54.01
2018-07-14T22:29:53.498Z,54.87
2018-07-14T22:32:24.254Z,54.59
2018-07-14T22:34:55.187Z,54.97
2018-07-14T22:37:25.961Z,54.24
2018-07-14T22:39:56.686Z,54.20
2018-07-14T22:42:27.482Z,54.25
2018-07-14T22:44:59.870Z,54.21
2018-07-14T22:47:30.606Z,53.58
2018-07-14T22:50:01.245Z,53.96
2018-07-14T22:52:31.357Z,53.91
2018-07-14T22:55:01.618Z,54.66
2018-07-14T22:57:32.482Z,54.67
2018-07-14T23:00:03.219Z,54.45
2018-07-14T23:02:33.986Z,54.80
2018-07-14T23:05:04.146Z,54.82
2018-07-14T23:07:35.522Z,53.93
2018-07-14T23:10:06.393Z,54.53
2018-07-14T23:12:37.227Z,54.36
2018-07-14T23:15:08.057Z,54.01
2018-07-14T23:17:38.851Z,54.44
2018-07-14T23:20:09.500Z,53.71
2018-07-14T23:22:40.177Z,53.62
2018-07-14T23:25:10.870Z,53.82
2018-07-14T23:27:41.853Z,54.56
2018-07-14T23:30:12.518Z,54.70
2018-07-14T23:32:43.301Z,54.35
2018-07-14T23:35:13.970Z,54.74
2018-07-14T23:37:44.830Z,54.40
2018-07-14T23:40:15.506Z,54.65
2018-07-14T23:42:46.298Z,54.50
2018-07-14T23:45:17.014Z,54.29
2018-07-14T23:47:47.875Z,54.71
2018-07-14T23:50:18.509Z,54.80
2018-07-14T23:52:49.308Z,54.54
2018-07-14T23:55:19.989Z,54.28
2018-07-14T23:57:50.585Z,53.82
